sensor_id;sensor_type;location;lat;lon;timestamp;temperature;humidity
20845;DHT22;10583;49.084;8.646;2023-12-04T00:02:24;-5.00;99.90
20845;DHT22;10583;49.084;8.646;2023-12-04T00:04:51;-5.00;99.90
20845;DHT22;10583;49.084;8.646;2023-12-04T00:07:18;-5.00;99.90
20845;DHT22;10583;49.084;8.646;2023-12-04T00:09:44;-5.00;99.90
20845;DHT22;10583;49.084;8.646;2023-12-04T00:12:11;-5.00;99.90
20845;DHT22;10583;49.084;8.646;2023-12-04T00:14:38;-5.10;99.90
20845;DHT22;10583;49.084;8.646;2023-12-04T00:17:06;-5.10;99.90
20845;DHT22;10583;49.084;8.646;2023-12-04T00:19:32;-5.10;99.90
20845;DHT22;10583;49.084;8.646;2023-12-04T00:21:59;-5.10;99.90
20845;DHT22;10583;49.084;8.646;2023-12-04T00:24:26;-5.10;99.90
20845;DHT22;10583;49.084;8.646;2023-12-04T00:26:52;-5.10;99.90
20845;DHT22;10583;49.084;8.646;2023-12-04T00:29:19;-5.20;99.90
20845;DHT22;10583;49.084;8.646;2023-12-04T00:31:46;-5.20;99.90
20845;DHT22;10583;49.084;8.646;2023-12-04T00:34:14;-5.30;99.90
20845;DHT22;10583;49.084;8.646;2023-12-04T00:36:41;-5.20;99.90
20845;DHT22;10583;49.084;8.646;2023-12-04T00:39:07;-5.20;99.90
20845;DHT22;10583;49.084;8.646;2023-12-04T00:41:34;-5.20;99.90
20845;DHT22;10583;49.084;8.646;2023-12-04T00:44:01;-5.10;99.90
20845;DHT22;10583;49.084;8.646;2023-12-04T00:46:27;-5.10;99.90
20845;DHT22;10583;49.084;8.646;2023-12-04T00:48:54;-5.10;99.90
20845;DHT22;10583;49.084;8.646;2023-12-04T00:51:22;-5.20;99.90
20845;DHT22;10583;49.084;8.646;2023-12-04T00:53:49;-5.20;99.90
20845;DHT22;10583;49.084;8.646;2023-12-04T00:56:15;-5.20;99.90
20845;DHT22;10583;49.084;8.646;2023-12-04T00:58:44;-5.20;99.90
20845;DHT22;10583;49.084;8.646;2023-12-04T01:01:10;-5.20;99.90
20845;DHT22;10583;49.084;8.646;2023-12-04T01:03:37;-5.10;99.90
20845;DHT22;10583;49.084;8.646;2023-12-04T01:06:05;-5.10;99.90
20845;DHT22;10583;49.084;8.646;2023-12-04T01:08:33;-5.00;99.90
20845;DHT22;10583;49.084;8.646;2023-12-04T01:10:59;-5.00;99.90
20845;DHT22;10583;49.084;8.646;2023-12-04T01:13:26;-5.00;99.90
20845;DHT22;10583;49.084;8.646;2023-12-04T01:15:53;-5.00;99.90
20845;DHT22;10583;49.084;8.646;2023-12-04T01:18:19;-5.00;99.90
20845;DHT22;10583;49.084;8.646;2023-12-04T01:20:46;-5.00;99.90
20845;DHT22;10583;49.084;8.646;2023-12-04T01:23:13;-5.00;99.90
20845;DHT22;10583;49.084;8.646;2023-12-04T01:25:41;-4.90;99.90
20845;DHT22;10583;49.084;8.646;2023-12-04T01:28:07;-5.00;99.90
20845;DHT22;10583;49.084;8.646;2023-12-04T01:30:34;-5.00;99.90
20845;DHT22;10583;49.084;8.646;2023-12-04T01:33:01;-5.00;99.90
20845;DHT22;10583;49.084;8.646;2023-12-04T01:35:27;-5.00;99.90
20845;DHT22;10583;49.084;8.646;2023-12-04T01:37:54;-5.00;99.90
20845;DHT22;10583;49.084;8.646;2023-12-04T01:40:21;-5.00;99.90
20845;DHT22;10583;49.084;8.646;2023-12-04T01:42:49;-4.90;99.90
20845;DHT22;10583;49.084;8.646;2023-12-04T01:45:16;-4.90;99.90
20845;DHT22;10583;49.084;8.646;2023-12-04T01:47:42;-4.90;99.90
20845;DHT22;10583;49.084;8.646;2023-12-04T01:50:10;-5.00;99.90
20845;DHT22;10583;49.084;8.646;2023-12-04T01:52:37;-4.90;99.90
20845;DHT22;10583;49.084;8.646;2023-12-04T01:55:04;-4.90;99.90
20845;DHT22;10583;49.084;8.646;2023-12-04T01:57:33;-4.80;99.90
20845;DHT22;10583;49.084;8.646;2023-12-04T02:00:01;-4.80;99.90
20845;DHT22;10583;49.084;8.646;2023-12-04T02:02:28;-4.80;99.90
20845;DHT22;10583;49.084;8.646;2023-12-04T02:04:55;-4.80;99.90
20845;DHT22;10583;49.084;8.646;2023-12-04T02:07:23;-4.80;99.90
20845;DHT22;10583;49.084;8.646;2023-12-04T02:09:50;-4.90;99.90
20845;DHT22;10583;49.084;8.646;2023-12-04T02:12:17;-4.90;99.90
20845;DHT22;10583;49.084;8.646;2023-12-04T02:14:44;-4.90;99.90
20845;DHT22;10583;49.084;8.646;2023-12-04T02:17:12;-4.90;99.90
20845;DHT22;10583;49.084;8.646;2023-12-04T02:19:40;-4.90;99.90
20845;DHT22;10583;49.084;8.646;2023-12-04T02:22:07;-5.00;99.90
20845;DHT22;10583;49.084;8.646;2023-12-04T02:24:35;-5.00;99.90
20845;DHT22;10583;49.084;8.646;2023-12-04T02:27:06;-5.00;99.90
20845;DHT22;10583;49.084;8.646;2023-12-04T02:29:39;-5.00;99.90
20845;DHT22;10583;49.084;8.646;2023-12-04T02:32:11;-5.00;99.90
20845;DHT22;10583;49.084;8.646;2023-12-04T02:34:41;-5.00;99.90
20845;DHT22;10583;49.084;8.646;2023-12-04T02:37:09;-5.00;99.90
20845;DHT22;10583;49.084;8.646;2023-12-04T02:39:38;-5.00;99.90
20845;DHT22;10583;49.084;8.646;2023-12-04T02:42:06;-5.00;99.90
20845;DHT22;10583;49.084;8.646;2023-12-04T02:44:32;-5.10;99.90
20845;DHT22;10583;49.084;8.646;2023-12-04T02:46:59;-5.10;99.90
20845;DHT22;10583;49.084;8.646;2023-12-04T02:49:26;-5.10;99.90
20845;DHT22;10583;49.084;8.646;2023-12-04T02:51:53;-5.00;99.90
20845;DHT22;10583;49.084;8.646;2023-12-04T02:54:19;-5.00;99.90
20845;DHT22;10583;49.084;8.646;2023-12-04T02:56:47;-4.90;99.90
20845;DHT22;10583;49.084;8.646;2023-12-04T02:59:14;-4.90;99.90
20845;DHT22;10583;49.084;8.646;2023-12-04T03:01:41;-4.90;99.90
20845;DHT22;10583;49.084;8.646;2023-12-04T03:04:07;-4.90;99.90
20845;DHT22;10583;49.084;8.646;2023-12-04T03:06:34;-4.90;99.90
20845;DHT22;10583;49.084;8.646;2023-12-04T03:09:02;-4.90;99.90
20845;DHT22;10583;49.084;8.646;2023-12-04T03:11:29;-4.80;99.90
20845;DHT22;10583;49.084;8.646;2023-12-04T03:13:59;-4.70;99.90
20845;DHT22;10583;49.084;8.646;2023-12-04T03:16:26;-4.70;99.90
20845;DHT22;10583;49.084;8.646;2023-12-04T03:18:53;-4.50;99.90
20845;DHT22;10583;49.084;8.646;2023-12-04T03:21:19;-4.20;99.90
20845;DHT22;10583;49.084;8.646;2023-12-04T03:23:46;-3.90;99.90
20845;DHT22;10583;49.084;8.646;2023-12-04T03:26:12;-3.60;99.90
20845;DHT22;10583;49.084;8.646;2023-12-04T03:28:39;-3.40;99.90
20845;DHT22;10583;49.084;8.646;2023-12-04T03:31:07;-3.30;99.90
20845;DHT22;10583;49.084;8.646;2023-12-04T03:33:34;-3.20;99.90
20845;DHT22;10583;49.084;8.646;2023-12-04T03:36:01;-3.10;99.90
20845;DHT22;10583;49.084;8.646;2023-12-04T03:38:28;-3.10;99.90
20845;DHT22;10583;49.084;8.646;2023-12-04T03:40:54;-3.00;99.90
20845;DHT22;10583;49.084;8.646;2023-12-04T03:43:21;-3.00;99.90
20845;DHT22;10583;49.084;8.646;2023-12-04T03:45:48;-3.00;99.90
20845;DHT22;10583;49.084;8.646;2023-12-04T03:48:16;-3.00;99.90
20845;DHT22;10583;49.084;8.646;2023-12-04T03:50:42;-3.00;99.90
20845;DHT22;10583;49.084;8.646;2023-12-04T03:53:09;-3.00;99.90
20845;DHT22;10583;49.084;8.646;2023-12-04T03:55:36;-3.10;99.90
20845;DHT22;10583;49.084;8.646;2023-12-04T03:58:03;-3.10;99.90
20845;DHT22;10583;49.084;8.646;2023-12-04T04:00:30;-3.10;99.90
20845;DHT22;10583;49.084;8.646;2023-12-04T04:02:56;-3.10;99.90
20845;DHT22;10583;49.084;8.646;2023-12-04T04:05:24;-3.20;99.90
20845;DHT22;10583;49.084;8.646;2023-12-04T04:07:51;-3.10;99.90
20845;DHT22;10583;49.084;8.646;2023-12-04T04:10:17;-3.00;99.90
20845;DHT22;10583;49.084;8.646;2023-12-04T04:12:44;-3.00;99.90
20845;DHT22;10583;49.084;8.646;2023-12-04T04:15:11;-3.00;99.90
20845;DHT22;10583;49.084;8.646;2023-12-04T04:17:38;-3.00;99.90
20845;DHT22;10583;49.084;8.646;2023-12-04T04:20:06;-3.00;99.90
20845;DHT22;10583;49.084;8.646;2023-12-04T04:22:34;-3.00;99.90
20845;DHT22;10583;49.084;8.646;2023-12-04T04:25:04;-3.00;99.90
20845;DHT22;10583;49.084;8.646;2023-12-04T04:27:31;-3.00;99.90
20845;DHT22;10583;49.084;8.646;2023-12-04T04:29:58;-3.00;99.90
20845;DHT22;10583;49.084;8.646;2023-12-04T04:32:24;-3.00;99.90
20845;DHT22;10583;49.084;8.646;2023-12-04T04:34:51;-3.00;99.90
20845;DHT22;10583;49.084;8.646;2023-12-04T04:37:18;-2.90;99.90
20845;DHT22;10583;49.084;8.646;2023-12-04T04:39:46;-2.90;99.90
20845;DHT22;10583;49.084;8.646;2023-12-04T04:42:14;-2.80;99.90
20845;DHT22;10583;49.084;8.646;2023-12-04T04:44:41;-2.80;99.90
20845;DHT22;10583;49.084;8.646;2023-12-04T04:47:07;-2.90;99.90
20845;DHT22;10583;49.084;8.646;2023-12-04T04:49:34;-2.90;99.90
20845;DHT22;10583;49.084;8.646;2023-12-04T04:52:01;-2.90;99.90
20845;DHT22;10583;49.084;8.646;2023-12-04T04:54:30;-2.90;99.90
20845;DHT22;10583;49.084;8.646;2023-12-04T04:56:58;-3.00;99.90
20845;DHT22;10583;49.084;8.646;2023-12-04T04:59:25;-3.00;99.90
20845;DHT22;10583;49.084;8.646;2023-12-04T05:01:52;-3.00;99.90
20845;DHT22;10583;49.084;8.646;2023-12-04T05:04:19;-3.00;99.90
20845;DHT22;10583;49.084;8.646;2023-12-04T05:06:46;-3.10;99.90
20845;DHT22;10583;49.084;8.646;2023-12-04T05:09:12;-3.10;99.90
20845;DHT22;10583;49.084;8.646;2023-12-04T05:11:39;-3.10;99.90
20845;DHT22;10583;49.084;8.646;2023-12-04T05:14:07;-3.00;99.90
20845;DHT22;10583;49.084;8.646;2023-12-04T05:16:33;-3.00;99.90
20845;DHT22;10583;49.084;8.646;2023-12-04T05:19:00;-2.90;99.90
20845;DHT22;10583;49.084;8.646;2023-12-04T05:21:27;-3.00;99.90
20845;DHT22;10583;49.084;8.646;2023-12-04T05:23:53;-3.00;99.90
20845;DHT22;10583;49.084;8.646;2023-12-04T05:26:20;-3.00;99.90
20845;DHT22;10583;49.084;8.646;2023-12-04T05:28:47;-3.00;99.90
20845;DHT22;10583;49.084;8.646;2023-12-04T05:31:15;-3.00;99.90
20845;DHT22;10583;49.084;8.646;2023-12-04T05:33:41;-3.00;99.90
20845;DHT22;10583;49.084;8.646;2023-12-04T05:36:10;-3.00;99.90
20845;DHT22;10583;49.084;8.646;2023-12-04T05:38:36;-3.00;99.90
20845;DHT22;10583;49.084;8.646;2023-12-04T05:41:03;-3.00;99.90
20845;DHT22;10583;49.084;8.646;2023-12-04T05:43:30;-3.00;99.90
20845;DHT22;10583;49.084;8.646;2023-12-04T05:45:57;-3.00;99.90
20845;DHT22;10583;49.084;8.646;2023-12-04T05:48:25;-3.00;99.90
20845;DHT22;10583;49.084;8.646;2023-12-04T05:50:51;-3.00;99.90
20845;DHT22;10583;49.084;8.646;2023-12-04T05:53:19;-3.00;99.90
20845;DHT22;10583;49.084;8.646;2023-12-04T05:55:46;-3.00;99.90
20845;DHT22;10583;49.084;8.646;2023-12-04T05:58:12;-3.00;99.90
20845;DHT22;10583;49.084;8.646;2023-12-04T06:00:40;-3.00;99.90
20845;DHT22;10583;49.084;8.646;2023-12-04T06:03:06;-3.00;99.90
20845;DHT22;10583;49.084;8.646;2023-12-04T06:05:34;-3.00;99.90
20845;DHT22;10583;49.084;8.646;2023-12-04T06:08:01;-3.10;99.90
20845;DHT22;10583;49.084;8.646;2023-12-04T06:10:28;-3.10;99.90
20845;DHT22;10583;49.084;8.646;2023-12-04T06:12:54;-3.10;99.90
20845;DHT22;10583;49.084;8.646;2023-12-04T06:15:21;-3.20;99.90
20845;DHT22;10583;49.084;8.646;2023-12-04T06:17:47;-3.20;99.90
20845;DHT22;10583;49.084;8.646;2023-12-04T06:20:13;-3.20;99.90
20845;DHT22;10583;49.084;8.646;2023-12-04T06:22:42;-3.10;99.90
20845;DHT22;10583;49.084;8.646;2023-12-04T06:25:10;-3.10;99.90
20845;DHT22;10583;49.084;8.646;2023-12-04T06:27:37;-3.10;99.90
20845;DHT22;10583;49.084;8.646;2023-12-04T06:30:05;-3.00;99.90
20845;DHT22;10583;49.084;8.646;2023-12-04T06:32:33;-3.00;99.90
20845;DHT22;10583;49.084;8.646;2023-12-04T06:35:01;-3.00;99.90
20845;DHT22;10583;49.084;8.646;2023-12-04T06:37:29;-3.00;99.90
20845;DHT22;10583;49.084;8.646;2023-12-04T06:39:59;-3.00;99.90
20845;DHT22;10583;49.084;8.646;2023-12-04T06:42:27;-3.00;99.90
20845;DHT22;10583;49.084;8.646;2023-12-04T06:44:55;-3.00;99.90
20845;DHT22;10583;49.084;8.646;2023-12-04T06:47:23;-3.20;99.90
20845;DHT22;10583;49.084;8.646;2023-12-04T06:49:50;-3.30;99.90
20845;DHT22;10583;49.084;8.646;2023-12-04T06:52:17;-3.30;99.90
20845;DHT22;10583;49.084;8.646;2023-12-04T06:54:43;-3.30;99.90
20845;DHT22;10583;49.084;8.646;2023-12-04T06:57:11;-3.40;99.90
20845;DHT22;10583;49.084;8.646;2023-12-04T06:59:40;-3.50;99.90
20845;DHT22;10583;49.084;8.646;2023-12-04T07:02:06;-3.50;99.90
20845;DHT22;10583;49.084;8.646;2023-12-04T07:04:33;-3.40;99.90
20845;DHT22;10583;49.084;8.646;2023-12-04T07:07:00;-3.30;99.90
20845;DHT22;10583;49.084;8.646;2023-12-04T07:09:30;-3.20;99.90
20845;DHT22;10583;49.084;8.646;2023-12-04T07:11:57;-3.20;99.90
20845;DHT22;10583;49.084;8.646;2023-12-04T07:14:25;-3.10;99.90
20845;DHT22;10583;49.084;8.646;2023-12-04T07:16:52;-3.10;99.90
20845;DHT22;10583;49.084;8.646;2023-12-04T07:19:19;-3.00;99.90
20845;DHT22;10583;49.084;8.646;2023-12-04T07:21:47;-3.00;99.90
20845;DHT22;10583;49.084;8.646;2023-12-04T07:24:14;-2.90;99.90
20845;DHT22;10583;49.084;8.646;2023-12-04T07:26:41;-2.90;99.90
20845;DHT22;10583;49.084;8.646;2023-12-04T07:29:08;-2.80;99.90
20845;DHT22;10583;49.084;8.646;2023-12-04T07:31:36;-2.80;99.90
20845;DHT22;10583;49.084;8.646;2023-12-04T07:34:03;-2.70;99.90
20845;DHT22;10583;49.084;8.646;2023-12-04T07:36:30;-2.70;99.90
20845;DHT22;10583;49.084;8.646;2023-12-04T07:38:56;-2.70;99.90
20845;DHT22;10583;49.084;8.646;2023-12-04T07:41:23;-2.60;99.90
20845;DHT22;10583;49.084;8.646;2023-12-04T07:43:50;-2.60;99.90
20845;DHT22;10583;49.084;8.646;2023-12-04T07:46:17;-2.60;99.90
20845;DHT22;10583;49.084;8.646;2023-12-04T07:48:45;-2.70;99.90
20845;DHT22;10583;49.084;8.646;2023-12-04T07:51:11;-2.70;99.90
20845;DHT22;10583;49.084;8.646;2023-12-04T07:53:38;-2.70;99.90
20845;DHT22;10583;49.084;8.646;2023-12-04T07:56:06;-2.60;99.90
20845;DHT22;10583;49.084;8.646;2023-12-04T07:58:33;-2.50;99.90
20845;DHT22;10583;49.084;8.646;2023-12-04T08:01:00;-2.50;99.90
20845;DHT22;10583;49.084;8.646;2023-12-04T08:03:27;-2.40;99.90
20845;DHT22;10583;49.084;8.646;2023-12-04T08:05:55;-2.20;99.90
20845;DHT22;10583;49.084;8.646;2023-12-04T08:08:22;-2.20;99.90
20845;DHT22;10583;49.084;8.646;2023-12-04T08:10:49;-2.10;99.90
20845;DHT22;10583;49.084;8.646;2023-12-04T08:13:15;-2.10;99.90
20845;DHT22;10583;49.084;8.646;2023-12-04T08:15:42;-2.00;99.90
20845;DHT22;10583;49.084;8.646;2023-12-04T08:18:09;-1.90;99.90
20845;DHT22;10583;49.084;8.646;2023-12-04T08:20:36;-1.90;99.90
20845;DHT22;10583;49.084;8.646;2023-12-04T08:23:04;-1.90;99.90
20845;DHT22;10583;49.084;8.646;2023-12-04T08:25:31;-1.80;99.90
20845;DHT22;10583;49.084;8.646;2023-12-04T08:27:58;-1.70;99.90
20845;DHT22;10583;49.084;8.646;2023-12-04T08:30:25;-1.60;99.90
20845;DHT22;10583;49.084;8.646;2023-12-04T08:32:53;-1.60;99.90
20845;DHT22;10583;49.084;8.646;2023-12-04T08:35:20;-1.50;99.90
20845;DHT22;10583;49.084;8.646;2023-12-04T08:37:47;-1.50;99.90
20845;DHT22;10583;49.084;8.646;2023-12-04T08:40:15;-1.50;99.90
20845;DHT22;10583;49.084;8.646;2023-12-04T08:42:43;-1.40;99.90
20845;DHT22;10583;49.084;8.646;2023-12-04T08:45:09;-1.30;99.90
20845;DHT22;10583;49.084;8.646;2023-12-04T08:47:36;-1.30;99.90
20845;DHT22;10583;49.084;8.646;2023-12-04T08:50:04;-1.30;99.90
20845;DHT22;10583;49.084;8.646;2023-12-04T08:52:31;-1.20;99.90
20845;DHT22;10583;49.084;8.646;2023-12-04T08:54:57;-1.10;99.90
20845;DHT22;10583;49.084;8.646;2023-12-04T08:57:25;-1.20;99.90
20845;DHT22;10583;49.084;8.646;2023-12-04T08:59:52;-1.10;99.90
20845;DHT22;10583;49.084;8.646;2023-12-04T09:02:19;-1.10;99.90
20845;DHT22;10583;49.084;8.646;2023-12-04T09:04:46;-1.00;99.90
20845;DHT22;10583;49.084;8.646;2023-12-04T09:07:13;-1.00;99.90
20845;DHT22;10583;49.084;8.646;2023-12-04T09:09:40;-1.00;99.90
20845;DHT22;10583;49.084;8.646;2023-12-04T09:12:07;-0.90;99.90
20845;DHT22;10583;49.084;8.646;2023-12-04T09:14:35;-0.80;99.90
20845;DHT22;10583;49.084;8.646;2023-12-04T09:17:02;-0.80;99.90
20845;DHT22;10583;49.084;8.646;2023-12-04T09:19:30;-0.90;99.90
20845;DHT22;10583;49.084;8.646;2023-12-04T09:21:56;-0.90;99.90
20845;DHT22;10583;49.084;8.646;2023-12-04T09:24:23;-0.90;99.90
20845;DHT22;10583;49.084;8.646;2023-12-04T09:26:50;-0.90;99.90
20845;DHT22;10583;49.084;8.646;2023-12-04T09:29:16;-0.90;99.90
20845;DHT22;10583;49.084;8.646;2023-12-04T09:31:45;-0.90;99.90
20845;DHT22;10583;49.084;8.646;2023-12-04T09:34:12;-0.90;99.90
20845;DHT22;10583;49.084;8.646;2023-12-04T09:36:38;-0.80;99.90
20845;DHT22;10583;49.084;8.646;2023-12-04T09:39:05;-0.80;99.90
20845;DHT22;10583;49.084;8.646;2023-12-04T09:41:32;-0.80;99.90
20845;DHT22;10583;49.084;8.646;2023-12-04T09:43:59;-0.80;99.90
20845;DHT22;10583;49.084;8.646;2023-12-04T09:46:26;-0.80;99.90
20845;DHT22;10583;49.084;8.646;2023-12-04T09:48:55;-0.80;99.90
20845;DHT22;10583;49.084;8.646;2023-12-04T09:51:22;-0.70;99.90
20845;DHT22;10583;49.084;8.646;2023-12-04T09:53:51;-0.70;99.90
20845;DHT22;10583;49.084;8.646;2023-12-04T09:56:20;-0.70;99.90
20845;DHT22;10583;49.084;8.646;2023-12-04T09:58:50;-0.70;99.90
20845;DHT22;10583;49.084;8.646;2023-12-04T10:01:19;-0.60;99.90
20845;DHT22;10583;49.084;8.646;2023-12-04T10:03:46;-0.60;99.90
20845;DHT22;10583;49.084;8.646;2023-12-04T10:06:16;-0.50;99.90
20845;DHT22;10583;49.084;8.646;2023-12-04T10:08:43;-0.40;99.90
20845;DHT22;10583;49.084;8.646;2023-12-04T10:11:11;-0.40;99.90
20845;DHT22;10583;49.084;8.646;2023-12-04T10:13:38;-0.30;99.90
20845;DHT22;10583;49.084;8.646;2023-12-04T10:16:07;-0.30;99.90
20845;DHT22;10583;49.084;8.646;2023-12-04T10:18:33;-0.40;99.90
20845;DHT22;10583;49.084;8.646;2023-12-04T10:21:00;-0.30;99.90
20845;DHT22;10583;49.084;8.646;2023-12-04T10:23:38;-0.30;99.90
20845;DHT22;10583;49.084;8.646;2023-12-04T10:26:05;-0.30;99.90
20845;DHT22;10583;49.084;8.646;2023-12-04T10:28:32;-0.40;99.90
20845;DHT22;10583;49.084;8.646;2023-12-04T10:30:59;-0.40;99.90
20845;DHT22;10583;49.084;8.646;2023-12-04T10:33:26;-0.30;99.90
20845;DHT22;10583;49.084;8.646;2023-12-04T10:35:54;-0.30;99.90
20845;DHT22;10583;49.084;8.646;2023-12-04T10:38:21;-0.30;99.90
20845;DHT22;10583;49.084;8.646;2023-12-04T10:40:49;-0.30;99.90
20845;DHT22;10583;49.084;8.646;2023-12-04T10:43:17;-0.20;99.90
20845;DHT22;10583;49.084;8.646;2023-12-04T10:45:46;-0.20;99.90
20845;DHT22;10583;49.084;8.646;2023-12-04T10:48:13;-0.20;99.90
20845;DHT22;10583;49.084;8.646;2023-12-04T10:50:42;-0.10;99.90
20845;DHT22;10583;49.084;8.646;2023-12-04T10:53:11;0.00;99.90
20845;DHT22;10583;49.084;8.646;2023-12-04T10:55:39;0.00;99.90
20845;DHT22;10583;49.084;8.646;2023-12-04T10:58:09;0.10;99.90
20845;DHT22;10583;49.084;8.646;2023-12-04T11:00:41;0.10;99.90
20845;DHT22;10583;49.084;8.646;2023-12-04T11:03:09;0.10;99.90
20845;DHT22;10583;49.084;8.646;2023-12-04T11:05:38;0.20;99.90
20845;DHT22;10583;49.084;8.646;2023-12-04T11:08:06;0.20;99.90
20845;DHT22;10583;49.084;8.646;2023-12-04T11:10:35;0.10;99.90
20845;DHT22;10583;49.084;8.646;2023-12-04T11:13:09;0.10;99.90
20845;DHT22;10583;49.084;8.646;2023-12-04T11:15:40;0.10;99.90
20845;DHT22;10583;49.084;8.646;2023-12-04T11:18:07;0.10;99.90
20845;DHT22;10583;49.084;8.646;2023-12-04T11:20:40;0.10;99.90
20845;DHT22;10583;49.084;8.646;2023-12-04T11:23:08;0.20;99.90
20845;DHT22;10583;49.084;8.646;2023-12-04T11:25:35;0.10;99.90
20845;DHT22;10583;49.084;8.646;2023-12-04T11:28:02;0.10;99.90
20845;DHT22;10583;49.084;8.646;2023-12-04T11:30:32;0.00;99.90
20845;DHT22;10583;49.084;8.646;2023-12-04T11:33:00;0.10;99.90
20845;DHT22;10583;49.084;8.646;2023-12-04T11:35:27;0.10;99.90
20845;DHT22;10583;49.084;8.646;2023-12-04T11:37:54;0.10;99.90
20845;DHT22;10583;49.084;8.646;2023-12-04T11:40:21;0.10;99.90
20845;DHT22;10583;49.084;8.646;2023-12-04T11:42:48;0.10;99.90
20845;DHT22;10583;49.084;8.646;2023-12-04T11:45:18;0.10;99.90
20845;DHT22;10583;49.084;8.646;2023-12-04T11:47:51;0.10;99.90
20845;DHT22;10583;49.084;8.646;2023-12-04T11:50:19;0.10;99.90
20845;DHT22;10583;49.084;8.646;2023-12-04T11:52:46;0.10;99.90
20845;DHT22;10583;49.084;8.646;2023-12-04T11:55:16;0.20;99.90
20845;DHT22;10583;49.084;8.646;2023-12-04T11:57:43;0.20;99.90
20845;DHT22;10583;49.084;8.646;2023-12-04T12:00:13;0.20;99.90
20845;DHT22;10583;49.084;8.646;2023-12-04T12:02:48;0.20;99.90
20845;DHT22;10583;49.084;8.646;2023-12-04T12:05:17;0.20;99.90
20845;DHT22;10583;49.084;8.646;2023-12-04T12:07:44;0.20;99.90
20845;DHT22;10583;49.084;8.646;2023-12-04T12:10:11;0.20;99.90
20845;DHT22;10583;49.084;8.646;2023-12-04T12:12:39;0.20;99.90
20845;DHT22;10583;49.084;8.646;2023-12-04T12:15:08;0.20;99.90
20845;DHT22;10583;49.084;8.646;2023-12-04T12:17:37;0.20;99.90
20845;DHT22;10583;49.084;8.646;2023-12-04T12:20:05;0.20;99.90
20845;DHT22;10583;49.084;8.646;2023-12-04T12:22:33;0.20;99.90
20845;DHT22;10583;49.084;8.646;2023-12-04T12:25:00;0.30;99.90
20845;DHT22;10583;49.084;8.646;2023-12-04T12:27:27;0.20;99.90
20845;DHT22;10583;49.084;8.646;2023-12-04T12:29:56;0.20;99.90
20845;DHT22;10583;49.084;8.646;2023-12-04T12:32:23;0.30;99.90
20845;DHT22;10583;49.084;8.646;2023-12-04T12:34:51;0.30;99.90
20845;DHT22;10583;49.084;8.646;2023-12-04T12:37:18;0.20;99.90
20845;DHT22;10583;49.084;8.646;2023-12-04T12:39:46;0.30;99.90
20845;DHT22;10583;49.084;8.646;2023-12-04T12:42:21;0.30;99.90
20845;DHT22;10583;49.084;8.646;2023-12-04T12:44:47;0.30;99.90
20845;DHT22;10583;49.084;8.646;2023-12-04T12:47:14;0.30;99.90
20845;DHT22;10583;49.084;8.646;2023-12-04T12:49:41;0.30;99.90
20845;DHT22;10583;49.084;8.646;2023-12-04T12:52:10;0.30;99.90
20845;DHT22;10583;49.084;8.646;2023-12-04T12:54:37;0.30;99.90
20845;DHT22;10583;49.084;8.646;2023-12-04T12:57:05;0.40;99.90
20845;DHT22;10583;49.084;8.646;2023-12-04T12:59:33;0.40;99.90
20845;DHT22;10583;49.084;8.646;2023-12-04T13:02:00;0.30;99.90
20845;DHT22;10583;49.084;8.646;2023-12-04T13:04:34;0.30;99.90
20845;DHT22;10583;49.084;8.646;2023-12-04T13:07:00;0.20;99.90
20845;DHT22;10583;49.084;8.646;2023-12-04T13:09:28;0.30;99.90
20845;DHT22;10583;49.084;8.646;2023-12-04T13:11:55;0.30;99.90
20845;DHT22;10583;49.084;8.646;2023-12-04T13:14:23;0.30;99.90
20845;DHT22;10583;49.084;8.646;2023-12-04T13:16:50;0.30;99.90
20845;DHT22;10583;49.084;8.646;2023-12-04T13:19:17;0.30;99.90
20845;DHT22;10583;49.084;8.646;2023-12-04T13:21:44;0.20;99.90
20845;DHT22;10583;49.084;8.646;2023-12-04T13:24:10;0.30;99.90
20845;DHT22;10583;49.084;8.646;2023-12-04T13:26:38;0.30;99.90
20845;DHT22;10583;49.084;8.646;2023-12-04T13:29:05;0.20;99.90
20845;DHT22;10583;49.084;8.646;2023-12-04T13:31:34;0.30;99.90
20845;DHT22;10583;49.084;8.646;2023-12-04T13:34:01;0.40;99.90
20845;DHT22;10583;49.084;8.646;2023-12-04T13:36:31;0.40;99.90
20845;DHT22;10583;49.084;8.646;2023-12-04T13:38:58;0.40;99.90
20845;DHT22;10583;49.084;8.646;2023-12-04T13:41:25;0.50;99.90
20845;DHT22;10583;49.084;8.646;2023-12-04T13:44:09;0.70;99.90
20845;DHT22;10583;49.084;8.646;2023-12-04T13:46:41;0.80;99.90
20845;DHT22;10583;49.084;8.646;2023-12-04T13:49:08;0.70;99.90
20845;DHT22;10583;49.084;8.646;2023-12-04T13:51:35;0.70;99.90
20845;DHT22;10583;49.084;8.646;2023-12-04T13:54:05;0.70;99.90
20845;DHT22;10583;49.084;8.646;2023-12-04T13:56:46;0.80;99.90
20845;DHT22;10583;49.084;8.646;2023-12-04T13:59:19;0.80;99.90
20845;DHT22;10583;49.084;8.646;2023-12-04T14:01:47;0.90;99.90
20845;DHT22;10583;49.084;8.646;2023-12-04T14:04:15;1.00;99.90
20845;DHT22;10583;49.084;8.646;2023-12-04T14:06:42;1.00;99.90
20845;DHT22;10583;49.084;8.646;2023-12-04T14:09:08;1.00;99.90
20845;DHT22;10583;49.084;8.646;2023-12-04T14:11:40;1.10;99.90
20845;DHT22;10583;49.084;8.646;2023-12-04T14:14:07;1.10;99.90
20845;DHT22;10583;49.084;8.646;2023-12-04T14:16:34;1.10;99.90
20845;DHT22;10583;49.084;8.646;2023-12-04T14:19:02;1.10;99.90
20845;DHT22;10583;49.084;8.646;2023-12-04T14:21:29;1.10;99.90
20845;DHT22;10583;49.084;8.646;2023-12-04T14:23:55;1.20;99.90
20845;DHT22;10583;49.084;8.646;2023-12-04T14:26:22;1.20;99.90
20845;DHT22;10583;49.084;8.646;2023-12-04T14:28:50;1.20;99.90
20845;DHT22;10583;49.084;8.646;2023-12-04T14:31:16;1.20;99.90
20845;DHT22;10583;49.084;8.646;2023-12-04T14:33:43;1.30;99.90
20845;DHT22;10583;49.084;8.646;2023-12-04T14:36:12;1.40;99.90
20845;DHT22;10583;49.084;8.646;2023-12-04T14:38:39;1.40;99.90
20845;DHT22;10583;49.084;8.646;2023-12-04T14:41:06;1.50;99.90
20845;DHT22;10583;49.084;8.646;2023-12-04T14:43:35;1.50;99.90
20845;DHT22;10583;49.084;8.646;2023-12-04T14:46:02;1.50;99.90
20845;DHT22;10583;49.084;8.646;2023-12-04T14:48:29;1.50;99.90
20845;DHT22;10583;49.084;8.646;2023-12-04T14:50:56;1.50;99.90
20845;DHT22;10583;49.084;8.646;2023-12-04T14:53:24;1.50;99.90
20845;DHT22;10583;49.084;8.646;2023-12-04T14:55:56;1.50;99.90
20845;DHT22;10583;49.084;8.646;2023-12-04T14:58:37;1.50;99.90
20845;DHT22;10583;49.084;8.646;2023-12-04T15:01:21;1.50;99.90
20845;DHT22;10583;49.084;8.646;2023-12-04T15:04:23;1.50;99.90
20845;DHT22;10583;49.084;8.646;2023-12-04T15:07:33;1.50;99.90
20845;DHT22;10583;49.084;8.646;2023-12-04T15:10:24;1.50;99.90
20845;DHT22;10583;49.084;8.646;2023-12-04T15:13:27;1.50;99.90
20845;DHT22;10583;49.084;8.646;2023-12-04T15:16:10;1.60;99.90
20845;DHT22;10583;49.084;8.646;2023-12-04T15:18:51;1.60;99.90
20845;DHT22;10583;49.084;8.646;2023-12-04T15:21:48;1.80;99.90
20845;DHT22;10583;49.084;8.646;2023-12-04T15:24:14;1.90;99.90
20845;DHT22;10583;49.084;8.646;2023-12-04T15:26:41;2.00;99.90
20845;DHT22;10583;49.084;8.646;2023-12-04T15:29:08;2.10;99.90
20845;DHT22;10583;49.084;8.646;2023-12-04T15:31:35;2.20;99.90
20845;DHT22;10583;49.084;8.646;2023-12-04T15:34:05;2.20;99.90
20845;DHT22;10583;49.084;8.646;2023-12-04T15:36:30;2.20;99.90
20845;DHT22;10583;49.084;8.646;2023-12-04T15:38:57;2.10;99.90
20845;DHT22;10583;49.084;8.646;2023-12-04T15:41:23;2.10;99.90